Time;durP1;ratioP1;P1;durP2;ratioP2;P2;SDS_P1;SDS_P2;PMS_P1;PMS_P2;Temp;Humidity;BMP_temperature;BMP_pressure;BME280_temperature;BME280_humidity;BME280_pressure;Samples;Min_cycle;Max_cycle;Signal;HPM_P1;HPM_P2
2022/11/16 00:02:21;;;;;;;30.80;22.03;;;8.90;99.90;;;;;;5131410;27;20186;-71
2022/11/16 00:04:48;;;;;;;32.77;22.60;;;8.90;99.90;;;;;;5139976;27;20717;-70
2022/11/16 00:07:15;;;;;;;30.17;22.23;;;8.80;99.90;;;;;;5151917;27;20285;-72
2022/11/16 00:09:42;;;;;;;30.13;22.00;;;8.80;99.90;;;;;;5151840;27;20273;-70
2022/11/16 00:12:11;;;;;;;32.20;23.33;;;8.80;99.90;;;;;;5151772;27;20208;-71
2022/11/16 00:14:38;;;;;;;31.20;22.23;;;8.80;99.90;;;;;;5151590;27;20205;-70
2022/11/16 00:17:06;;;;;;;30.30;22.43;;;8.80;99.90;;;;;;5137288;27;20210;-69
2022/11/16 00:19:33;;;;;;;32.90;23.17;;;8.80;99.90;;;;;;5130241;27;20285;-70
2022/11/16 00:22:00;;;;;;;32.97;22.70;;;8.70;99.90;;;;;;5129166;27;20259;-70
2022/11/16 00:24:27;;;;;;;29.67;22.90;;;8.70;99.90;;;;;;5110121;27;20324;-70
2022/11/16 00:26:55;;;;;;;29.47;21.27;;;8.70;99.90;;;;;;5127323;27;20307;-71
2022/11/16 00:29:23;;;;;;;29.40;22.33;;;8.70;99.90;;;;;;5130358;27;20194;-70
2022/11/16 00:31:52;;;;;;;28.70;20.77;;;8.60;99.90;;;;;;5130328;27;20193;-70
2022/11/16 00:34:21;;;;;;;32.43;21.40;;;8.60;99.90;;;;;;5130570;27;20213;-71
2022/11/16 00:36:49;;;;;;;26.53;20.87;;;8.60;99.90;;;;;;5130750;27;20209;-71
2022/11/16 00:39:17;;;;;;;26.40;20.50;;;8.60;99.90;;;;;;5122797;27;20208;-70
2022/11/16 00:41:44;;;;;;;30.00;21.67;;;8.60;99.90;;;;;;5130420;27;20210;-71
2022/11/16 00:44:12;;;;;;;27.30;20.90;;;8.60;99.90;;;;;;5129796;27;20225;-72
2022/11/16 00:46:39;;;;;;;30.47;21.60;;;8.60;99.90;;;;;;5130096;27;20730;-72
2022/11/16 00:49:06;;;;;;;31.27;21.50;;;8.60;99.90;;;;;;5130375;27;20246;-72
2022/11/16 00:51:35;;;;;;;32.57;22.77;;;8.60;99.90;;;;;;5129615;27;20255;-71
2022/11/16 00:54:02;;;;;;;30.23;21.93;;;8.60;99.90;;;;;;5129760;27;20284;-71
2022/11/16 00:56:30;;;;;;;28.07;22.17;;;8.60;99.90;;;;;;5124954;27;20297;-71
2022/11/16 00:58:56;;;;;;;30.30;22.30;;;8.60;99.90;;;;;;5109488;28;20247;-72
2022/11/16 01:01:23;;;;;;;29.77;21.33;;;8.50;99.90;;;;;;5120663;27;20276;-72
2022/11/16 01:03:51;;;;;;;26.90;20.30;;;8.50;99.90;;;;;;5130084;27;20246;-72
2022/11/16 01:06:19;;;;;;;28.63;20.23;;;8.50;99.90;;;;;;5130311;27;20586;-71
2022/11/16 01:08:48;;;;;;;27.00;20.07;;;8.40;99.90;;;;;;5129698;27;20694;-71
2022/11/16 01:14:03;;;;;;;26.53;19.73;;;8.30;99.90;;;;;;5103002;27;20293;-71
2022/11/16 01:16:31;;;;;;;28.00;19.83;;;8.30;99.90;;;;;;5129539;27;20240;-70
2022/11/16 01:18:58;;;;;;;25.33;18.70;;;8.20;99.90;;;;;;5129797;27;20315;-70
2022/11/16 01:21:25;;;;;;;27.00;19.53;;;8.20;99.90;;;;;;5122939;27;20297;-69
2022/11/16 01:23:54;;;;;;;26.47;18.87;;;8.20;99.90;;;;;;5108383;28;20827;-69
2022/11/16 01:26:21;;;;;;;24.90;18.30;;;8.20;99.90;;;;;;5117266;27;20307;-69
2022/11/16 01:28:48;;;;;;;24.50;18.63;;;8.10;99.90;;;;;;5109985;27;20661;-70
2022/11/16 01:31:15;;;;;;;26.73;19.23;;;8.20;99.90;;;;;;5108485;28;20284;-69
2022/11/16 01:33:42;;;;;;;25.57;18.33;;;8.20;99.90;;;;;;5111972;27;20574;-72
2022/11/16 01:36:13;;;;;;;27.43;18.83;;;8.20;99.90;;;;;;5108731;28;20285;-72
2022/11/16 01:38:42;;;;;;;26.53;18.97;;;8.20;99.90;;;;;;5108758;28;20239;-72
2022/11/16 01:41:13;;;;;;;26.03;18.37;;;8.20;99.90;;;;;;5108676;28;20585;-71
2022/11/16 01:43:52;;;;;;;24.83;18.23;;;8.20;99.90;;;;;;5108858;28;20282;-71
2022/11/16 01:46:20;;;;;;;23.20;17.83;;;8.20;99.90;;;;;;5108629;28;20297;-71
2022/11/16 01:48:48;;;;;;;25.23;18.40;;;8.20;99.90;;;;;;5108827;28;20301;-72
2022/11/16 01:51:16;;;;;;;26.07;19.23;;;8.30;99.90;;;;;;5129228;27;20223;-72
2022/11/16 01:53:43;;;;;;;25.03;18.53;;;8.20;99.90;;;;;;5128839;27;20675;-72
2022/11/16 01:56:11;;;;;;;25.97;18.93;;;8.20;99.90;;;;;;5126298;27;20300;-72
2022/11/16 01:58:38;;;;;;;24.00;18.83;;;8.20;99.90;;;;;;5108533;27;20301;-72
2022/11/16 02:01:05;;;;;;;24.10;17.93;;;8.20;99.90;;;;;;5107823;27;20257;-72
2022/11/16 02:03:32;;;;;;;26.53;18.53;;;8.10;99.90;;;;;;5108301;28;20241;-72
2022/11/16 02:06:17;;;;;;;22.97;18.37;;;8.10;99.90;;;;;;5109056;27;20312;-72
2022/11/16 02:12:04;;;;;;;24.90;19.27;;;8.10;99.90;;;;;;5128663;27;20609;-72
2022/11/16 02:14:48;;;;;;;27.73;18.77;;;8.20;99.90;;;;;;5127823;27;20202;-71
2022/11/16 02:17:22;;;;;;;25.63;18.93;;;8.10;99.90;;;;;;5128695;27;20288;-70
2022/11/16 02:20:25;;;;;;;26.80;19.50;;;8.10;99.90;;;;;;5128495;27;20189;-70
2022/11/16 02:23:13;;;;;;;26.37;19.80;;;8.00;99.90;;;;;;5117656;27;20214;-70
2022/11/16 02:25:53;;;;;;;26.40;19.00;;;8.00;99.90;;;;;;5107778;28;20651;-71
2022/11/16 02:28:37;;;;;;;27.80;19.17;;;8.00;99.90;;;;;;5107782;28;20201;-72
2022/11/16 02:31:12;;;;;;;27.23;18.43;;;7.90;99.90;;;;;;5116537;27;20719;-71
2022/11/16 02:33:42;;;;;;;25.67;19.27;;;7.90;99.90;;;;;;5128375;27;20279;-70
2022/11/16 02:36:14;;;;;;;27.47;19.17;;;7.90;99.90;;;;;;5113065;27;20289;-71
2022/11/16 02:38:46;;;;;;;26.13;18.63;;;7.90;99.90;;;;;;5107596;28;20194;-72
2022/11/16 02:41:17;;;;;;;25.50;19.13;;;7.90;99.90;;;;;;5107625;28;20642;-72
2022/11/16 02:43:48;;;;;;;24.43;18.37;;;7.80;99.90;;;;;;5107548;28;20629;-72
2022/11/16 02:46:21;;;;;;;25.47;18.20;;;7.90;99.90;;;;;;5117958;28;20527;-71
2022/11/16 02:48:52;;;;;;;22.57;17.20;;;7.80;99.90;;;;;;5128366;27;20209;-71
2022/11/16 02:51:21;;;;;;;22.87;17.53;;;7.80;99.90;;;;;;5128068;27;20193;-71
2022/11/16 02:54:07;;;;;;;24.17;17.57;;;7.80;99.90;;;;;;5139068;27;20224;-71
2022/11/16 02:56:43;;;;;;;26.43;18.13;;;7.80;99.90;;;;;;5136299;27;20207;-71
2022/11/16 02:59:10;;;;;;;26.10;18.27;;;7.80;99.90;;;;;;5148480;27;20536;-71
2022/11/16 03:01:43;;;;;;;25.90;18.40;;;7.80;99.90;;;;;;5148314;27;20229;-71
2022/11/16 03:04:16;;;;;;;26.10;18.90;;;7.80;99.90;;;;;;5148510;27;20654;-71
2022/11/16 03:06:46;;;;;;;26.07;18.27;;;7.90;99.90;;;;;;5127909;27;20280;-71
2022/11/16 03:09:18;;;;;;;27.33;18.07;;;7.90;99.90;;;;;;5127982;27;20288;-71
2022/11/16 03:11:59;;;;;;;23.83;17.70;;;7.90;99.90;;;;;;5128007;27;20243;-71
2022/11/16 03:14:32;;;;;;;24.67;17.13;;;7.90;99.90;;;;;;5113271;27;20595;-71
2022/11/16 03:17:03;;;;;;;26.00;18.33;;;7.90;99.90;;;;;;5110983;28;20258;-72
2022/11/16 03:19:36;;;;;;;24.93;17.43;;;7.90;99.90;;;;;;5116307;27;20621;-72
2022/11/16 03:22:11;;;;;;;24.70;17.67;;;7.90;99.90;;;;;;5123464;27;20235;-72
2022/11/16 03:24:38;;;;;;;24.70;18.03;;;7.90;99.90;;;;;;5129935;27;20209;-72
2022/11/16 03:27:10;;;;;;;23.97;17.97;;;7.90;99.90;;;;;;5131847;27;20209;-73
2022/11/16 03:29:43;;;;;;;24.60;17.37;;;7.90;99.90;;;;;;5129702;27;20217;-72
2022/11/16 03:32:19;;;;;;;24.20;17.57;;;7.90;99.90;;;;;;5129838;27;20276;-72
2022/11/16 03:34:52;;;;;;;24.20;18.30;;;7.80;99.90;;;;;;5129159;27;20291;-72
2022/11/16 03:37:21;;;;;;;27.03;19.23;;;7.80;99.90;;;;;;5129524;27;20328;-72
2022/11/16 03:39:50;;;;;;;26.53;19.93;;;7.80;99.90;;;;;;5129355;27;20316;-72
2022/11/16 03:42:18;;;;;;;30.07;19.47;;;7.80;99.90;;;;;;5129457;27;20256;-72
2022/11/16 03:44:47;;;;;;;28.17;19.50;;;7.90;99.90;;;;;;5128799;27;20240;-72
2022/11/16 03:47:16;;;;;;;25.87;18.77;;;7.90;99.90;;;;;;5129822;27;20295;-72
2022/11/16 03:49:45;;;;;;;25.77;18.53;;;7.80;99.90;;;;;;5122663;27;20288;-72
2022/11/16 03:52:13;;;;;;;28.27;19.70;;;7.80;99.90;;;;;;5116208;27;20267;-72
2022/11/16 03:54:40;;;;;;;28.23;19.97;;;7.80;99.90;;;;;;5127259;27;20296;-72
2022/11/16 03:57:08;;;;;;;27.17;19.37;;;7.80;99.90;;;;;;5129488;27;20425;-72
2022/11/16 03:59:35;;;;;;;29.83;20.47;;;7.80;99.90;;;;;;5149340;27;20219;-72
2022/11/16 04:02:02;;;;;;;27.07;19.40;;;7.80;99.90;;;;;;5133910;27;20701;-72
2022/11/16 04:28:12;;;;;;;30.83;21.17;;;7.80;99.90;;;;;;5134726;27;20280;-72
2022/11/16 04:29:24;;;;;;;30.87;22.03;;;7.70;99.90;;;;;;5150912;27;20253;-72
2022/11/16 04:40:06;;;;;;;33.37;22.87;;;7.60;99.90;;;;;;5116503;27;20204;-72
2022/11/16 04:42:33;;;;;;;37.53;23.90;;;7.70;99.90;;;;;;5130264;27;20224;-73
2022/11/16 04:47:44;;;;;;;34.23;24.07;;;7.70;99.90;;;;;;5109664;28;20189;-72
2022/11/16 04:50:11;;;;;;;37.27;24.10;;;7.70;99.90;;;;;;5109593;28;20309;-72
2022/11/16 04:52:39;;;;;;;36.20;23.87;;;7.70;99.90;;;;;;5109671;28;20309;-72
2022/11/16 04:55:07;;;;;;;35.90;25.07;;;7.70;99.90;;;;;;5109699;28;20333;-73
2022/11/16 04:57:34;;;;;;;37.70;24.73;;;7.70;99.90;;;;;;5130545;27;20312;-72
2022/11/16 05:00:01;;;;;;;37.40;24.10;;;7.70;99.90;;;;;;5129487;27;20237;-72
2022/11/16 05:02:28;;;;;;;38.57;24.83;;;7.70;99.90;;;;;;5130061;27;20200;-72
2022/11/16 05:04:54;;;;;;;38.67;24.50;;;7.70;99.90;;;;;;5129776;27;20228;-72
2022/11/16 05:07:21;;;;;;;38.67;24.20;;;7.70;99.90;;;;;;5129827;27;20239;-72
2022/11/16 05:09:50;;;;;;;39.60;25.57;;;7.70;99.90;;;;;;5129778;27;20493;-72
2022/11/16 05:12:19;;;;;;;37.67;24.17;;;7.70;99.90;;;;;;5129626;27;20255;-73
2022/11/16 05:14:46;;;;;;;36.07;24.40;;;7.70;99.90;;;;;;5129387;27;20263;-72
2022/11/16 05:17:14;;;;;;;41.47;25.23;;;7.70;99.90;;;;;;5129379;27;20288;-72
2022/11/16 05:22:26;;;;;;;38.30;23.63;;;7.70;99.90;;;;;;5119019;27;20228;-72
2022/11/16 05:24:53;;;;;;;42.00;24.30;;;7.70;99.90;;;;;;5108904;28;20252;-72
2022/11/16 05:27:22;;;;;;;42.70;24.83;;;7.70;99.90;;;;;;5109133;28;20210;-72
2022/11/16 05:29:49;;;;;;;41.97;24.67;;;7.70;99.90;;;;;;5108521;28;20202;-72
2022/11/16 05:32:17;;;;;;;46.23;26.30;;;7.70;99.90;;;;;;5108997;28;20210;-72
2022/11/16 05:34:44;;;;;;;42.87;24.83;;;7.70;99.90;;;;;;5117329;27;20319;-72
2022/11/16 05:37:12;;;;;;;44.47;25.67;;;7.70;99.90;;;;;;5129157;27;20276;-72
2022/11/16 05:39:39;;;;;;;46.73;25.43;;;7.80;99.90;;;;;;5129061;27;20246;-72
2022/11/16 05:42:08;;;;;;;44.73;25.73;;;7.70;99.90;;;;;;5121928;27;20249;-72
2022/11/16 05:44:35;;;;;;;43.20;24.10;;;7.80;99.90;;;;;;5108240;28;20267;-72
2022/11/16 05:47:02;;;;;;;46.80;26.43;;;7.80;99.90;;;;;;5108254;28;20455;-72
2022/11/16 05:49:29;;;;;;;42.60;26.13;;;7.80;99.90;;;;;;5108519;28;20667;-72
2022/11/16 05:51:56;;;;;;;46.03;25.83;;;7.80;99.90;;;;;;5108387;28;20289;-72
2022/11/16 05:54:25;;;;;;;44.07;25.10;;;7.90;99.90;;;;;;5120762;27;20340;-72
2022/11/16 05:56:53;;;;;;;45.93;27.13;;;7.90;99.90;;;;;;5137105;27;20215;-72
2022/11/16 05:59:23;;;;;;;45.00;25.83;;;7.90;99.90;;;;;;5149325;27;20310;-72
2022/11/16 06:01:50;;;;;;;46.27;27.87;;;7.90;99.90;;;;;;5131440;27;20300;-72
2022/11/16 06:04:20;;;;;;;47.60;27.37;;;7.90;99.90;;;;;;5106892;28;20212;-72
2022/11/16 06:06:47;;;;;;;49.10;27.23;;;8.00;99.90;;;;;;5108303;28;20226;-72
2022/11/16 06:09:15;;;;;;;45.87;26.17;;;7.90;99.90;;;;;;5107861;28;20297;-72
2022/11/16 06:11:42;;;;;;;47.90;26.70;;;7.90;99.90;;;;;;5108129;28;20205;-72
2022/11/16 06:14:09;;;;;;;44.73;26.00;;;7.90;99.90;;;;;;5107730;28;20292;-72
2022/11/16 06:16:37;;;;;;;52.23;27.60;;;7.90;99.90;;;;;;5114957;27;20321;-72
2022/11/16 06:19:04;;;;;;;54.73;29.10;;;7.90;99.90;;;;;;5108014;28;20292;-72
2022/11/16 06:21:31;;;;;;;50.57;28.10;;;7.90;99.90;;;;;;5115706;27;20208;-72
2022/11/16 06:23:58;;;;;;;49.10;27.30;;;7.90;99.90;;;;;;5128256;27;20606;-72
2022/11/16 06:26:25;;;;;;;46.40;27.10;;;7.90;99.90;;;;;;5132742;27;20319;-72
2022/11/16 06:28:53;;;;;;;47.80;27.90;;;8.00;99.90;;;;;;5148738;27;20200;-72
2022/11/16 06:31:20;;;;;;;47.93;26.50;;;8.00;99.90;;;;;;5137361;27;20212;-72
2022/11/16 06:33:48;;;;;;;52.83;28.90;;;8.00;99.90;;;;;;5128186;27;20213;-72
2022/11/16 06:36:15;;;;;;;50.03;27.43;;;8.00;99.90;;;;;;5128560;27;20209;-72
2022/11/16 06:38:42;;;;;;;53.43;28.67;;;7.90;99.90;;;;;;5128418;27;20633;-72
2022/11/16 06:41:09;;;;;;;52.40;28.60;;;8.00;99.90;;;;;;5127997;27;20241;-72
2022/11/16 06:43:36;;;;;;;49.93;28.10;;;8.00;99.90;;;;;;5128219;27;20198;-72
2022/11/16 06:46:03;;;;;;;53.33;27.83;;;8.00;99.90;;;;;;5127811;27;20367;-72
2022/11/16 06:48:32;;;;;;;53.13;28.97;;;8.00;99.90;;;;;;5128168;27;20201;-72
2022/11/16 06:51:00;;;;;;;48.83;26.43;;;8.00;99.90;;;;;;5130063;27;20208;-72
2022/11/16 06:53:27;;;;;;;47.37;27.43;;;8.00;99.90;;;;;;5132176;27;20331;-72
2022/11/16 06:55:54;;;;;;;52.40;28.57;;;8.10;99.90;;;;;;5132578;27;20288;-72
2022/11/16 06:58:21;;;;;;;48.50;27.43;;;8.10;99.90;;;;;;5152758;27;20288;-72
2022/11/16 07:00:48;;;;;;;52.30;28.17;;;8.10;99.90;;;;;;5152519;27;20236;-72
2022/11/16 07:03:15;;;;;;;52.43;29.00;;;8.00;99.90;;;;;;5153421;27;20231;-72
2022/11/16 07:05:42;;;;;;;50.57;27.77;;;8.10;99.90;;;;;;5152932;27;20293;-71
2022/11/16 07:08:10;;;;;;;52.13;27.50;;;8.10;99.90;;;;;;5153004;27;20280;-71
2022/11/16 07:10:38;;;;;;;51.27;27.60;;;8.10;99.90;;;;;;5152837;27;20296;-72
2022/11/16 07:13:05;;;;;;;54.33;27.77;;;8.10;99.90;;;;;;5132928;27;20240;-72
2022/11/16 07:15:32;;;;;;;49.90;28.07;;;8.10;99.90;;;;;;5131938;27;20252;-72
2022/11/16 07:18:04;;;;;;;54.73;27.63;;;8.10;99.90;;;;;;5131975;27;20240;-72
2022/11/16 07:20:31;;;;;;;54.80;28.70;;;8.10;99.90;;;;;;5132286;27;20236;-72
2022/11/16 07:23:00;;;;;;;50.67;27.57;;;8.20;99.90;;;;;;5111694;27;20252;-72
2022/11/16 07:25:29;;;;;;;55.57;28.73;;;8.10;99.90;;;;;;5111633;27;20639;-72
2022/11/16 07:27:58;;;;;;;55.77;28.67;;;8.20;99.90;;;;;;5132105;27;20297;-72
2022/11/16 07:30:25;;;;;;;51.80;28.03;;;8.10;99.90;;;;;;5111486;27;20220;-72
2022/11/16 07:32:56;;;;;;;52.03;28.17;;;8.20;99.90;;;;;;5111289;28;20590;-72
2022/11/16 07:35:23;;;;;;;52.83;28.53;;;8.20;99.90;;;;;;5125137;27;20240;-72
2022/11/16 07:37:50;;;;;;;55.73;27.53;;;8.20;99.90;;;;;;5132055;27;20241;-72
2022/11/16 07:40:17;;;;;;;62.20;30.07;;;8.20;99.90;;;;;;5132231;27;20292;-72
2022/11/16 07:42:45;;;;;;;59.97;29.07;;;8.20;99.90;;;;;;5131698;27;20202;-72
2022/11/16 07:45:12;;;;;;;56.87;27.40;;;8.20;99.90;;;;;;5131571;27;20730;-72
2022/11/16 07:47:39;;;;;;;54.60;27.37;;;8.10;99.90;;;;;;5131477;27;20336;-72
2022/11/16 07:50:07;;;;;;;56.17;27.10;;;8.10;99.90;;;;;;5131452;27;20293;-72
2022/11/16 07:52:34;;;;;;;61.17;28.13;;;8.10;99.90;;;;;;5131231;27;20695;-71
2022/11/16 07:55:01;;;;;;;61.17;28.33;;;8.00;99.90;;;;;;5131248;27;20297;-71
2022/11/16 07:57:28;;;;;;;56.70;28.10;;;8.00;99.90;;;;;;5144658;27;20296;-71
2022/11/16 07:59:56;;;;;;;65.20;29.67;;;8.00;99.90;;;;;;5151422;27;20912;-71
2022/11/16 08:02:23;;;;;;;67.33;29.13;;;8.00;99.90;;;;;;5151819;27;20196;-71
2022/11/16 08:04:50;;;;;;;59.30;28.33;;;8.00;99.90;;;;;;5151806;27;20229;-72
2022/11/16 08:07:17;;;;;;;61.77;28.17;;;8.00;99.90;;;;;;5149550;27;20231;-71
2022/11/16 08:09:48;;;;;;;59.87;29.17;;;8.00;99.90;;;;;;5111496;27;20611;-71
2022/11/16 08:12:15;;;;;;;62.97;29.60;;;8.00;99.90;;;;;;5110161;28;20186;-71
2022/11/16 08:14:42;;;;;;;56.33;28.50;;;8.00;99.90;;;;;;5109858;28;20304;-71
2022/11/16 08:17:10;;;;;;;61.23;30.20;;;8.00;99.90;;;;;;5110100;28;20206;-71
2022/11/16 08:19:39;;;;;;;63.03;29.10;;;8.00;99.90;;;;;;5110308;27;20709;-71
2022/11/16 08:22:06;;;;;;;64.23;29.73;;;8.00;99.90;;;;;;5120166;27;20221;-73
2022/11/16 08:24:33;;;;;;;57.87;29.10;;;8.00;99.90;;;;;;5127460;27;20202;-72
2022/11/16 08:27:00;;;;;;;61.77;29.70;;;8.00;99.90;;;;;;5130101;27;20288;-71
2022/11/16 08:29:27;;;;;;;57.20;28.93;;;8.00;99.90;;;;;;5129993;27;20203;-72
2022/11/16 08:31:54;;;;;;;63.67;29.90;;;8.00;99.90;;;;;;5129745;27;20241;-71
2022/11/16 08:34:23;;;;;;;63.60;31.63;;;8.00;99.90;;;;;;5129804;27;20201;-71
2022/11/16 08:36:50;;;;;;;65.73;30.13;;;8.00;99.90;;;;;;5129816;27;20205;-71
2022/11/16 08:39:17;;;;;;;57.50;28.83;;;8.00;99.90;;;;;;5129842;27;20294;-71
2022/11/16 08:41:44;;;;;;;63.57;29.60;;;8.00;99.90;;;;;;5130755;27;20283;-71
2022/11/16 08:44:11;;;;;;;61.70;29.77;;;7.90;99.90;;;;;;5130270;27;20301;-71
2022/11/16 08:46:38;;;;;;;61.77;29.57;;;8.00;99.90;;;;;;5130072;27;20308;-71
2022/11/16 08:49:06;;;;;;;57.63;28.70;;;8.00;99.90;;;;;;5130242;27;20300;-71
2022/11/16 08:51:34;;;;;;;58.57;28.80;;;8.00;99.90;;;;;;5130001;27;20711;-71
2022/11/16 08:54:02;;;;;;;55.90;27.70;;;8.00;99.90;;;;;;5129819;27;20742;-71
2022/11/16 08:56:29;;;;;;;54.90;28.17;;;8.00;99.90;;;;;;5135238;27;20213;-73
2022/11/16 08:58:56;;;;;;;56.97;28.37;;;8.00;99.90;;;;;;5150581;27;20240;-72
2022/11/16 09:01:25;;;;;;;50.77;25.50;;;8.00;99.90;;;;;;5149991;27;20335;-72
2022/11/16 09:03:53;;;;;;;51.53;26.27;;;8.00;99.90;;;;;;5144403;27;20240;-72
2022/11/16 09:06:21;;;;;;;54.37;27.10;;;8.00;99.90;;;;;;5108992;28;20226;-72
2022/11/16 09:08:49;;;;;;;51.57;25.53;;;8.00;99.90;;;;;;5109190;28;20297;-72
2022/11/16 09:11:19;;;;;;;50.53;25.03;;;8.00;99.90;;;;;;5109059;28;20743;-72
2022/11/16 09:13:47;;;;;;;52.80;25.43;;;8.00;99.90;;;;;;5108391;28;20246;-72
2022/11/16 09:16:15;;;;;;;49.63;23.53;;;7.90;99.90;;;;;;5108581;28;20292;-72
2022/11/16 09:18:42;;;;;;;50.03;24.47;;;7.90;99.90;;;;;;5109344;28;20210;-72
2022/11/16 09:21:09;;;;;;;51.63;24.87;;;8.00;99.90;;;;;;5124646;27;20672;-72
2022/11/16 09:23:36;;;;;;;49.03;23.70;;;7.90;99.90;;;;;;5108603;28;20373;-72
2022/11/16 09:26:06;;;;;;;50.37;24.13;;;8.00;99.90;;;;;;5111777;27;20213;-72
2022/11/16 09:28:33;;;;;;;46.97;22.93;;;8.00;99.90;;;;;;5130940;27;20243;-72
2022/11/16 09:31:02;;;;;;;46.33;23.60;;;8.00;99.90;;;;;;5129081;27;20249;-72
2022/11/16 09:33:30;;;;;;;45.47;23.70;;;8.00;99.90;;;;;;5129485;27;20209;-72
2022/11/16 09:36:01;;;;;;;42.00;21.67;;;8.10;99.90;;;;;;5129059;27;20205;-72
2022/11/16 09:38:28;;;;;;;43.43;21.73;;;8.00;99.90;;;;;;5129391;27;20232;-72
2022/11/16 09:40:57;;;;;;;44.17;22.67;;;8.00;99.90;;;;;;5129313;27;20360;-71
2022/11/16 09:43:37;;;;;;;42.27;21.90;;;8.00;99.90;;;;;;5128849;27;20206;-72
2022/11/16 09:46:16;;;;;;;40.40;20.90;;;8.00;99.90;;;;;;5128572;27;20189;-72
2022/11/16 09:48:44;;;;;;;41.40;20.60;;;8.10;99.90;;;;;;5129257;27;20218;-72
2022/11/16 09:51:15;;;;;;;36.77;19.00;;;8.00;99.90;;;;;;5128874;27;20206;-72
2022/11/16 09:53:45;;;;;;;37.60;20.10;;;8.10;99.90;;;;;;5128915;27;20285;-72
2022/11/16 09:56:16;;;;;;;37.60;19.50;;;8.10;99.90;;;;;;5131056;27;20293;-72
2022/11/16 09:58:52;;;;;;;34.80;18.30;;;8.10;99.90;;;;;;5149719;27;20196;-72
2022/11/16 10:01:26;;;;;;;31.73;17.23;;;8.10;99.90;;;;;;5133900;27;20247;-72
2022/11/16 10:03:58;;;;;;;29.87;17.03;;;8.10;99.90;;;;;;5128337;27;20641;-72
2022/11/16 10:06:35;;;;;;;23.87;14.50;;;8.10;99.90;;;;;;5128803;27;20300;-72
2022/11/16 10:09:02;;;;;;;24.30;14.27;;;8.10;99.90;;;;;;5128822;27;20561;-72
2022/11/16 10:11:51;;;;;;;21.50;13.13;;;8.10;99.90;;;;;;5128739;27;20361;-72
2022/11/16 10:14:41;;;;;;;20.13;12.23;;;8.10;99.90;;;;;;5128747;27;20276;-72
2022/11/16 10:17:17;;;;;;;19.03;12.03;;;8.10;99.90;;;;;;5128511;27;20206;-73
2022/11/16 10:19:53;;;;;;;19.57;11.70;;;8.10;99.90;;;;;;5128887;27;20190;-72
2022/11/16 10:22:33;;;;;;;17.67;12.07;;;8.10;99.90;;;;;;5123863;27;20231;-72
2022/11/16 10:25:06;;;;;;;20.30;11.83;;;8.10;99.90;;;;;;5107588;28;20735;-72
2022/11/16 10:28:05;;;;;;;16.47;11.03;;;8.00;99.90;;;;;;5136641;27;20316;-72
2022/11/16 10:30:40;;;;;;;16.07;11.17;;;8.10;99.90;;;;;;5125071;27;20760;-72
2022/11/16 10:33:13;;;;;;;13.87;10.93;;;8.00;99.90;;;;;;5149008;27;20654;-73
2022/11/16 10:35:44;;;;;;;19.07;12.07;;;8.00;99.90;;;;;;5136220;27;20242;-73
2022/11/16 10:38:14;;;;;;;17.00;11.43;;;8.00;99.90;;;;;;5128249;27;20197;-73
2022/11/16 10:40:41;;;;;;;16.67;12.27;;;8.00;99.90;;;;;;5128328;27;20248;-72
2022/11/16 10:43:14;;;;;;;16.70;11.60;;;8.00;99.90;;;;;;5128282;27;20284;-73
2022/11/16 10:45:48;;;;;;;18.00;11.47;;;8.00;99.90;;;;;;5128111;27;20277;-73
2022/11/16 10:48:23;;;;;;;18.23;12.03;;;8.00;99.90;;;;;;5128201;27;20304;-72
2022/11/16 10:50:53;;;;;;;17.43;12.57;;;8.00;99.90;;;;;;5128200;27;20197;-72
2022/11/16 10:53:27;;;;;;;17.77;12.00;;;8.00;99.90;;;;;;5128419;27;20232;-72
2022/11/16 10:56:09;;;;;;;19.40;12.53;;;8.00;99.90;;;;;;5127763;27;20277;-72
2022/11/16 10:58:51;;;;;;;19.60;12.67;;;8.00;99.90;;;;;;5108666;27;21106;-72
2022/11/16 11:01:35;;;;;;;19.37;13.07;;;8.00;99.90;;;;;;5107114;28;20238;-72
2022/11/16 11:04:20;;;;;;;18.00;12.47;;;8.00;99.90;;;;;;5107532;28;20194;-72
2022/11/16 11:06:50;;;;;;;18.23;12.73;;;8.00;99.90;;;;;;5107852;28;20615;-72
2022/11/16 11:09:24;;;;;;;18.90;12.93;;;8.00;99.90;;;;;;5107885;28;20202;-71
2022/11/16 11:15:07;;;;;;;20.47;13.77;;;8.00;99.90;;;;;;5127421;28;20209;-72
2022/11/16 11:17:36;;;;;;;20.43;13.77;;;8.00;99.90;;;;;;5128347;27;20280;-72
2022/11/16 11:20:05;;;;;;;19.30;14.30;;;8.00;99.90;;;;;;5138483;27;20287;-72
2022/11/16 11:22:34;;;;;;;19.87;14.83;;;8.00;99.90;;;;;;5132260;27;20323;-72
2022/11/16 11:25:03;;;;;;;20.60;15.03;;;8.00;99.90;;;;;;5128134;27;20297;-72
2022/11/16 11:27:34;;;;;;;21.20;14.67;;;8.00;99.90;;;;;;5141077;27;20715;-72
2022/11/16 11:30:02;;;;;;;21.00;14.13;;;8.00;99.90;;;;;;5148459;27;20224;-72
2022/11/16 11:32:34;;;;;;;17.93;13.27;;;8.00;99.90;;;;;;5130475;27;20664;-72
2022/11/16 11:35:05;;;;;;;20.93;14.40;;;8.00;99.90;;;;;;5127830;27;20309;-72
2022/11/16 11:37:35;;;;;;;21.90;15.20;;;8.00;99.90;;;;;;5130729;27;20213;-72
2022/11/16 11:40:24;;;;;;;18.57;12.93;;;8.00;99.90;;;;;;5131404;27;20262;-72
2022/11/16 11:42:59;;;;;;;17.67;13.43;;;8.00;99.90;;;;;;5126931;27;20292;-72
2022/11/16 11:45:36;;;;;;;21.43;14.20;;;8.10;99.90;;;;;;5131741;27;20651;-72
2022/11/16 11:48:06;;;;;;;20.57;14.17;;;8.00;99.90;;;;;;5131520;27;20312;-72
2022/11/16 11:50:44;;;;;;;19.63;14.07;;;8.00;99.90;;;;;;5131485;27;20219;-72
2022/11/16 11:53:21;;;;;;;19.80;13.23;;;8.00;99.90;;;;;;5125648;27;20341;-72
2022/11/16 11:55:51;;;;;;;20.37;13.90;;;8.00;99.90;;;;;;5111154;28;20377;-72
2022/11/16 11:58:20;;;;;;;19.33;14.43;;;8.00;99.90;;;;;;5152550;27;20237;-72
2022/11/16 12:00:57;;;;;;;22.43;14.70;;;8.00;99.90;;;;;;5151815;27;20240;-72
2022/11/16 12:03:41;;;;;;;22.53;14.93;;;8.00;99.90;;;;;;5152399;27;20231;-72
2022/11/16 12:06:14;;;;;;;19.10;14.30;;;8.00;99.90;;;;;;5151773;27;20189;-72
2022/11/16 12:09:00;;;;;;;23.43;15.17;;;8.00;99.90;;;;;;5141971;27;20408;-72
2022/11/16 12:11:38;;;;;;;21.03;14.43;;;8.00;99.90;;;;;;5131227;27;20288;-72
2022/11/16 12:14:19;;;;;;;21.97;14.80;;;7.90;99.90;;;;;;5131026;27;20216;-72
2022/11/16 12:16:56;;;;;;;24.07;15.27;;;8.00;99.90;;;;;;5130905;27;20297;-72
2022/11/16 12:19:42;;;;;;;21.67;15.20;;;7.90;99.90;;;;;;5131173;27;20200;-72
2022/11/16 12:22:26;;;;;;;20.03;14.73;;;7.90;99.90;;;;;;5130324;27;20246;-72
2022/11/16 12:25:04;;;;;;;21.60;15.33;;;7.90;99.90;;;;;;5130520;27;20237;-71
2022/11/16 12:27:39;;;;;;;24.80;15.63;;;7.90;99.90;;;;;;5137640;27;21051;-71
2022/11/16 12:30:11;;;;;;;20.63;15.43;;;8.00;99.90;;;;;;5130783;27;20228;-72
2022/11/16 12:33:04;;;;;;;25.70;16.50;;;8.00;99.90;;;;;;5130493;27;20546;-72
2022/11/16 12:35:48;;;;;;;25.07;16.47;;;8.00;99.90;;;;;;5130658;27;20289;-72
2022/11/16 12:38:42;;;;;;;22.17;15.60;;;8.00;99.90;;;;;;5130775;27;20186;-72
2022/11/16 12:41:44;;;;;;;23.17;16.00;;;8.00;99.90;;;;;;5130627;27;20202;-72
2022/11/16 12:44:15;;;;;;;21.73;15.80;;;7.90;99.90;;;;;;5130497;27;20643;-71
2022/11/16 12:46:53;;;;;;;24.17;15.83;;;7.90;99.90;;;;;;5129806;27;20284;-71
2022/11/16 12:49:33;;;;;;;23.00;16.23;;;7.90;99.90;;;;;;5124061;27;20298;-71
2022/11/16 12:52:18;;;;;;;23.40;15.43;;;7.90;99.90;;;;;;5109745;28;20198;-72
2022/11/16 12:55:18;;;;;;;20.67;14.70;;;7.90;99.90;;;;;;5109753;28;20187;-72
2022/11/16 12:58:00;;;;;;;20.10;14.90;;;7.90;99.90;;;;;;5141314;27;20205;-71
2022/11/16 13:00:32;;;;;;;21.33;14.13;;;7.90;99.90;;;;;;5150025;27;20335;-72
2022/11/16 13:03:11;;;;;;;23.10;15.67;;;7.90;99.90;;;;;;5150810;27;20196;-71
2022/11/16 13:05:49;;;;;;;22.63;14.90;;;7.90;99.90;;;;;;5134735;27;20297;-72
2022/11/16 13:08:32;;;;;;;21.17;15.00;;;7.90;99.90;;;;;;5129495;27;20221;-72
2022/11/16 13:11:04;;;;;;;22.87;15.17;;;7.90;99.90;;;;;;5129733;27;20276;-72
2022/11/16 13:13:35;;;;;;;19.90;15.17;;;7.90;99.90;;;;;;5148602;27;20551;-72
2022/11/16 13:16:05;;;;;;;19.60;15.17;;;7.90;99.90;;;;;;5149830;27;20292;-72
2022/11/16 13:18:34;;;;;;;19.47;14.47;;;7.90;99.90;;;;;;5150171;27;20213;-71
2022/11/16 13:21:05;;;;;;;21.03;15.33;;;7.90;99.90;;;;;;5146270;27;20842;-72
2022/11/16 13:23:44;;;;;;;19.47;15.23;;;7.90;99.90;;;;;;5119785;27;20243;-71
2022/11/16 13:26:22;;;;;;;17.90;14.60;;;8.00;99.90;;;;;;5131682;27;20204;-72
2022/11/16 13:29:00;;;;;;;20.97;14.87;;;8.00;99.90;;;;;;5149631;27;20830;-72
2022/11/16 13:31:33;;;;;;;22.17;14.67;;;8.00;99.90;;;;;;5149710;27;20312;-72
2022/11/16 13:34:03;;;;;;;18.27;14.60;;;8.00;99.90;;;;;;5149621;27;20224;-72
2022/11/16 13:36:47;;;;;;;18.17;13.57;;;8.00;99.90;;;;;;5150293;27;20280;-72
2022/11/16 13:39:16;;;;;;;18.47;14.30;;;8.00;99.90;;;;;;5149775;27;20280;-72
2022/11/16 13:41:45;;;;;;;18.80;14.37;;;8.00;99.90;;;;;;5150071;27;20201;-72